createdAt,value
2022-12-13T00:00:19.323Z,88.72
2022-12-13T00:02:36.889Z,88.43
2022-12-13T00:04:54.279Z,88.10
2022-12-13T00:07:11.291Z,88.61
2022-12-13T00:09:28.317Z,88.13
2022-12-13T00:11:45.263Z,88.26
2022-12-13T00:14:03.378Z,88.79
2022-12-13T00:16:20.767Z,88.22
2022-12-13T00:18:38.254Z,87.86
2022-12-13T00:20:55.564Z,87.96
2022-12-13T00:23:12.973Z,88.30
2022-12-13T00:25:29.974Z,88.28
2022-12-13T00:27:47.117Z,88.23
2022-12-13T00:30:04.218Z,88.13
2022-12-13T00:32:21.440Z,88.16
2022-12-13T00:34:38.933Z,88.33
2022-12-13T00:36:56.266Z,88.24
2022-12-13T00:39:13.544Z,88.20
2022-12-13T00:41:30.494Z,88.29
2022-12-13T00:43:48.056Z,88.71
2022-12-13T00:46:06.160Z,88.21
2022-12-13T00:48:23.632Z,88.79
2022-12-13T00:50:40.698Z,88.91
2022-12-13T00:52:58.038Z,88.72
2022-12-13T00:55:15.805Z,88.68
2022-12-13T00:57:33.519Z,88.54
2022-12-13T00:59:50.921Z,88.13
2022-12-13T01:02:08.255Z,89.05
2022-12-13T01:04:26.327Z,88.96
2022-12-13T01:06:43.374Z,89.17
2022-12-13T01:09:00.469Z,88.93
2022-12-13T01:11:17.823Z,88.72
2022-12-13T01:13:35.273Z,88.82
2022-12-13T01:15:52.217Z,88.44
2022-12-13T01:18:09.514Z,88.34
2022-12-13T01:20:27.395Z,88.17
2022-12-13T01:22:44.352Z,88.88
2022-12-13T01:25:01.627Z,88.82
2022-12-13T01:27:18.761Z,89.01
2022-12-13T01:29:35.877Z,88.63
2022-12-13T01:31:53.039Z,88.75
2022-12-13T01:34:09.947Z,88.30
2022-12-13T01:36:28.207Z,88.08
2022-12-13T01:38:45.698Z,88.31
2022-12-13T01:41:02.921Z,87.75
2022-12-13T01:43:34.289Z,87.83
2022-12-13T01:45:51.246Z,87.86
2022-12-13T01:48:08.238Z,88.13
2022-12-13T01:50:25.176Z,87.70
2022-12-13T01:52:42.291Z,88.05
2022-12-13T01:55:14.982Z,87.79
2022-12-13T01:57:32.058Z,88.17
2022-12-13T01:59:49.067Z,88.30
2022-12-13T02:02:06.956Z,88.13
2022-12-13T02:04:24.739Z,87.84
2022-12-13T02:06:41.704Z,87.67
2022-12-13T02:08:58.659Z,87.49
2022-12-13T02:11:15.701Z,87.49
2022-12-13T02:13:32.685Z,87.95
2022-12-13T02:15:49.621Z,87.38
2022-12-13T02:18:06.972Z,87.61
2022-12-13T02:20:23.907Z,87.13
2022-12-13T02:22:41.005Z,87.28
2022-12-13T02:24:58.198Z,87.57
2022-12-13T02:27:16.199Z,87.24
2022-12-13T02:29:47.767Z,87.37
2022-12-13T02:32:04.881Z,87.13
2022-12-13T02:34:21.913Z,87.44
2022-12-13T02:36:38.911Z,87.14
2022-12-13T02:38:56.994Z,87.26
2022-12-13T02:41:13.949Z,87.39
2022-12-13T02:43:33.399Z,87.15
2022-12-13T02:45:50.893Z,87.57
2022-12-13T02:48:08.146Z,87.36
2022-12-13T02:50:25.125Z,87.72
2022-12-13T02:52:42.168Z,86.91
2022-12-13T02:54:59.207Z,87.82
2022-12-13T02:57:16.273Z,87.52
2022-12-13T02:59:39.102Z,87.56
2022-12-13T03:02:09.483Z,86.80
2022-12-13T03:04:27.565Z,86.90
2022-12-13T03:06:44.866Z,86.48
2022-12-13T03:09:02.125Z,86.39
2022-12-13T03:11:19.028Z,86.37
2022-12-13T03:13:36.243Z,86.53
2022-12-13T03:15:53.565Z,86.85
2022-12-13T03:18:10.526Z,86.64
2022-12-13T03:20:27.510Z,86.48
2022-12-13T03:22:44.591Z,86.65
2022-12-13T03:25:01.863Z,87.07
2022-12-13T03:27:19.130Z,86.53
2022-12-13T03:29:36.249Z,86.56
2022-12-13T03:31:54.051Z,86.48
2022-12-13T03:34:11.347Z,86.79
2022-12-13T03:36:29.625Z,86.49
2022-12-13T03:38:47.530Z,86.42
2022-12-13T03:41:04.560Z,86.92
2022-12-13T03:43:22.649Z,86.71
2022-12-13T03:45:40.255Z,85.93
2022-12-13T03:47:57.615Z,86.44
2022-12-13T03:50:27.024Z,86.18
2022-12-13T03:52:44.293Z,86.67
2022-12-13T03:55:01.285Z,86.23
2022-12-13T03:57:18.607Z,86.39
2022-12-13T03:59:35.550Z,85.93
2022-12-13T04:01:54.011Z,85.40
2022-12-13T04:04:12.101Z,85.40
2022-12-13T04:06:33.022Z,85.55
2022-12-13T04:08:50.966Z,85.65
2022-12-13T04:11:08.250Z,85.04
2022-12-13T04:13:26.245Z,85.79
2022-12-13T04:15:43.608Z,85.45
2022-12-13T04:18:00.730Z,85.89
2022-12-13T04:20:17.801Z,85.72
2022-12-13T04:22:34.896Z,85.29
2022-12-13T04:24:51.843Z,85.58
2022-12-13T04:27:09.798Z,85.81
2022-12-13T04:29:27.102Z,85.79
2022-12-13T04:31:52.082Z,84.78
2022-12-13T04:34:08.968Z,84.83
2022-12-13T04:36:31.703Z,84.52
2022-12-13T04:38:49.860Z,84.57
2022-12-13T04:41:07.058Z,84.43
2022-12-13T04:43:25.641Z,84.37
2022-12-13T04:45:43.041Z,84.28
2022-12-13T04:48:00.144Z,84.45
2022-12-13T04:50:17.546Z,83.20
2022-12-13T04:52:34.789Z,83.63
2022-12-13T04:54:55.640Z,83.84
2022-12-13T04:57:12.955Z,83.81
2022-12-13T04:59:29.893Z,84.53
2022-12-13T05:01:46.951Z,84.20
2022-12-13T05:04:03.984Z,83.64
2022-12-13T05:06:26.941Z,83.23
2022-12-13T05:08:45.068Z,83.72
2022-12-13T05:11:02.107Z,83.58
2022-12-13T05:13:19.403Z,83.75
2022-12-13T05:15:36.684Z,83.59
2022-12-13T05:17:53.907Z,83.74
2022-12-13T05:20:10.856Z,83.97
2022-12-13T05:22:27.794Z,84.14
2022-12-13T05:24:45.089Z,83.96
2022-12-13T05:27:02.156Z,83.92
2022-12-13T05:29:39.359Z,83.97
2022-12-13T05:31:56.484Z,84.23
2022-12-13T05:34:13.793Z,84.16
2022-12-13T05:36:30.794Z,83.98
2022-12-13T05:38:48.034Z,83.61
2022-12-13T05:41:05.406Z,83.92
2022-12-13T05:43:22.697Z,83.93
2022-12-13T05:45:39.724Z,83.58
2022-12-13T05:47:56.834Z,83.74
2022-12-13T05:50:14.315Z,83.55
2022-12-13T05:52:31.429Z,83.88
2022-12-13T05:54:48.493Z,83.87
2022-12-13T05:57:06.743Z,84.21
2022-12-13T05:59:24.020Z,84.07
2022-12-13T06:01:44.015Z,84.56
2022-12-13T06:04:02.254Z,84.41
2022-12-13T06:06:19.501Z,84.34
2022-12-13T06:08:36.490Z,84.25
2022-12-13T06:10:53.952Z,84.03
2022-12-13T06:13:31.692Z,83.98
2022-12-13T06:15:49.543Z,83.74
2022-12-13T06:18:06.849Z,83.92
2022-12-13T06:20:24.820Z,83.87
2022-12-13T06:22:42.897Z,83.43
2022-12-13T06:24:59.893Z,83.58
2022-12-13T06:27:16.985Z,83.32
2022-12-13T06:29:33.907Z,83.34
2022-12-13T06:31:50.779Z,83.44
2022-12-13T06:34:14.756Z,83.50
2022-12-13T06:36:32.358Z,83.55
2022-12-13T06:38:49.594Z,83.36
2022-12-13T06:41:06.633Z,83.13
2022-12-13T06:43:23.676Z,83.67
2022-12-13T06:45:40.694Z,83.48
2022-12-13T06:47:57.619Z,83.33
2022-12-13T06:50:14.930Z,83.81
2022-12-13T06:52:32.140Z,83.89
2022-12-13T06:54:49.419Z,83.58
2022-12-13T06:57:06.483Z,83.63
2022-12-13T06:59:23.511Z,83.67
2022-12-13T07:01:40.588Z,83.92
2022-12-13T07:03:57.682Z,83.97
2022-12-13T07:06:14.623Z,84.16
2022-12-13T07:08:31.635Z,83.98
2022-12-13T07:10:48.677Z,84.14
2022-12-13T07:13:07.110Z,84.01
2022-12-13T07:15:24.096Z,84.02
2022-12-13T07:17:41.081Z,84.36
2022-12-13T07:19:58.385Z,84.62
2022-12-13T07:22:18.317Z,84.44
2022-12-13T07:24:35.339Z,84.45
2022-12-13T07:26:52.320Z,84.34
2022-12-13T07:29:09.387Z,84.10
2022-12-13T07:31:28.267Z,84.40
2022-12-13T07:33:46.382Z,84.29
2022-12-13T07:36:03.373Z,84.32
2022-12-13T07:38:20.403Z,84.00
2022-12-13T07:40:37.418Z,84.16
2022-12-13T07:42:55.436Z,84.27
2022-12-13T07:45:14.756Z,84.50
2022-12-13T07:47:31.701Z,84.16
2022-12-13T07:49:48.683Z,84.57
2022-12-13T07:52:05.522Z,84.57
2022-12-13T07:54:22.420Z,84.24
2022-12-13T07:56:40.426Z,84.42
2022-12-13T07:58:57.486Z,84.30
2022-12-13T08:01:14.360Z,84.26
2022-12-13T08:03:31.227Z,84.24
2022-12-13T08:05:48.701Z,84.21
2022-12-13T08:08:05.710Z,84.16
2022-12-13T08:10:22.768Z,84.40
2022-12-13T08:12:39.983Z,84.17
2022-12-13T08:14:56.909Z,83.44
2022-12-13T08:17:14.213Z,83.31
2022-12-13T08:19:31.446Z,83.62
2022-12-13T08:21:57.921Z,83.67
2022-12-13T08:24:16.026Z,83.61
2022-12-13T08:26:33.392Z,83.69
2022-12-13T08:28:50.755Z,83.68
2022-12-13T08:31:08.033Z,84.00
2022-12-13T08:33:25.282Z,83.89
2022-12-13T08:35:42.355Z,83.68
2022-12-13T08:37:59.457Z,83.78
2022-12-13T08:40:18.350Z,83.68
2022-12-13T08:42:35.652Z,82.97
2022-12-13T08:44:53.425Z,82.87
2022-12-13T08:47:10.376Z,82.90
2022-12-13T08:49:27.414Z,83.27
2022-12-13T08:51:44.273Z,83.45
2022-12-13T08:54:10.442Z,82.91
2022-12-13T08:56:28.632Z,83.26
2022-12-13T08:58:45.726Z,83.25
2022-12-13T09:01:02.753Z,82.88
2022-12-13T09:03:19.910Z,83.43
2022-12-13T09:05:37.422Z,83.27
2022-12-13T09:07:54.484Z,82.96
2022-12-13T09:10:26.299Z,82.97
2022-12-13T09:12:44.529Z,82.66
2022-12-13T09:15:02.108Z,83.11
2022-12-13T09:17:24.171Z,82.97
2022-12-13T09:19:42.201Z,82.79
2022-12-13T09:22:02.478Z,82.99
2022-12-13T09:24:24.757Z,82.72
2022-12-13T09:26:42.237Z,82.92
2022-12-13T09:28:59.303Z,82.94
2022-12-13T09:31:28.237Z,82.64
2022-12-13T09:33:46.251Z,82.03
2022-12-13T09:36:03.294Z,82.59
2022-12-13T09:38:20.351Z,80.84
2022-12-13T09:40:38.256Z,80.71
2022-12-13T09:43:12.812Z,81.00
2022-12-13T09:45:32.370Z,81.11
2022-12-13T09:47:49.334Z,81.91
2022-12-13T09:50:06.673Z,80.29
2022-12-13T09:52:24.852Z,80.85
2022-12-13T09:54:48.369Z,81.02
2022-12-13T09:57:06.480Z,80.01
2022-12-13T09:59:23.803Z,80.20
2022-12-13T10:01:40.954Z,79.86
2022-12-13T10:03:58.082Z,79.22
2022-12-13T10:06:15.091Z,78.75
2022-12-13T10:08:40.619Z,80.09
2022-12-13T10:10:57.556Z,79.69
2022-12-13T10:13:14.609Z,80.03
2022-12-13T10:15:31.668Z,79.53
2022-12-13T10:17:54.938Z,80.23
2022-12-13T10:20:12.731Z,79.95
2022-12-13T10:22:30.611Z,79.79
2022-12-13T10:24:47.603Z,80.14
2022-12-13T10:27:04.880Z,80.33
2022-12-13T10:29:22.200Z,81.43
2022-12-13T10:31:40.110Z,81.31
2022-12-13T10:33:57.437Z,80.08
2022-12-13T10:36:14.687Z,80.33
2022-12-13T10:41:06.338Z,80.21
2022-12-13T10:43:23.921Z,80.50
2022-12-13T10:45:41.229Z,79.42
2022-12-13T10:48:03.823Z,79.95
2022-12-13T10:50:21.693Z,79.94
2022-12-13T10:52:43.096Z,79.61
2022-12-13T10:55:01.391Z,79.83
2022-12-13T10:57:20.612Z,80.23
2022-12-13T10:59:37.652Z,79.90
2022-12-13T11:01:54.669Z,79.84
2022-12-13T11:04:11.751Z,79.81
2022-12-13T11:06:28.703Z,79.04
2022-12-13T11:08:45.982Z,79.12
2022-12-13T11:11:03.051Z,78.96
2022-12-13T11:13:20.316Z,78.26
2022-12-13T11:15:37.327Z,78.14
2022-12-13T11:17:54.680Z,77.58
2022-12-13T11:20:12.959Z,79.38
2022-12-13T11:22:29.955Z,79.52
2022-12-13T11:24:47.203Z,78.91
2022-12-13T11:27:04.137Z,78.88
2022-12-13T11:29:21.405Z,78.38
2022-12-13T11:31:40.587Z,78.35
2022-12-13T11:33:57.642Z,77.44
2022-12-13T11:36:14.720Z,77.93
2022-12-13T11:38:34.645Z,77.42
2022-12-13T11:40:51.655Z,78.07
2022-12-13T11:43:08.688Z,78.00
2022-12-13T11:45:26.765Z,78.09
2022-12-13T11:47:43.833Z,77.84
2022-12-13T11:50:00.727Z,78.17
2022-12-13T11:52:18.590Z,78.39
2022-12-13T11:54:35.913Z,77.94
2022-12-13T11:57:00.456Z,77.47
2022-12-13T11:59:25.865Z,77.74
2022-12-13T12:01:45.233Z,77.47
2022-12-13T12:04:02.405Z,78.32
2022-12-13T12:06:20.806Z,77.50
2022-12-13T12:08:39.146Z,77.86
2022-12-13T12:10:56.124Z,77.34
2022-12-13T12:13:18.537Z,77.57
2022-12-13T12:15:41.855Z,78.08
2022-12-13T12:17:59.307Z,78.09
2022-12-13T12:20:23.840Z,77.99
2022-12-13T12:22:41.484Z,77.92
2022-12-13T12:24:58.422Z,77.22
2022-12-13T12:27:22.705Z,77.22
2022-12-13T12:29:40.337Z,77.85
2022-12-13T12:31:57.597Z,77.51
2022-12-13T12:34:14.550Z,76.94
2022-12-13T12:36:31.768Z,76.20
2022-12-13T12:38:49.793Z,75.93
2022-12-13T12:41:16.064Z,76.37
2022-12-13T12:43:34.520Z,77.84
2022-12-13T12:45:56.897Z,76.52
2022-12-13T12:48:51.998Z,76.89
2022-12-13T12:50:51.429Z,76.98
2022-12-13T12:53:08.475Z,75.83
2022-12-13T12:55:27.428Z,76.11
2022-12-13T12:57:45.369Z,76.13
2022-12-13T13:00:03.446Z,76.64
2022-12-13T13:02:20.763Z,77.08
2022-12-13T13:04:37.758Z,76.56
2022-12-13T13:06:54.670Z,76.96
2022-12-13T13:09:24.562Z,77.10
2022-12-13T13:11:43.159Z,76.04
2022-12-13T13:14:01.952Z,75.66
2022-12-13T13:16:19.525Z,75.96
2022-12-13T13:18:36.858Z,76.16
2022-12-13T13:20:53.784Z,76.70
2022-12-13T13:23:38.820Z,76.70
2022-12-13T13:26:16.103Z,76.50
2022-12-13T13:28:26.298Z,77.47
2022-12-13T13:30:43.624Z,77.49
2022-12-13T13:33:00.723Z,77.25
2022-12-13T13:35:17.995Z,77.30
2022-12-13T13:37:34.999Z,77.31
2022-12-13T13:39:52.061Z,76.74
2022-12-13T13:42:09.059Z,77.04
2022-12-13T13:44:28.730Z,78.10
2022-12-13T13:46:46.273Z,78.07
2022-12-13T13:49:03.620Z,77.38
2022-12-13T13:51:20.595Z,78.22
2022-12-13T13:53:37.524Z,77.71
2022-12-13T13:55:57.176Z,78.03
2022-12-13T13:58:21.635Z,77.54
2022-12-13T14:00:39.179Z,78.31
2022-12-13T14:02:57.563Z,78.63
2022-12-13T14:05:14.877Z,78.69
2022-12-13T14:07:32.139Z,78.70
2022-12-13T14:09:49.508Z,78.26
2022-12-13T14:12:06.501Z,78.61
2022-12-13T14:14:23.478Z,78.81
2022-12-13T14:16:40.834Z,78.98
2022-12-13T14:18:57.894Z,79.06
2022-12-13T14:21:14.939Z,78.59
2022-12-13T14:23:31.994Z,78.20
2022-12-13T14:25:52.054Z,79.16
2022-12-13T14:28:09.702Z,79.18
2022-12-13T14:30:28.357Z,79.47
2022-12-13T14:32:46.212Z,78.85
2022-12-13T14:35:26.249Z,79.31
2022-12-13T14:37:40.637Z,78.65
2022-12-13T14:39:58.053Z,79.02
2022-12-13T14:42:15.168Z,79.40
2022-12-13T14:44:32.875Z,78.58
2022-12-13T14:46:49.920Z,79.06
2022-12-13T14:49:07.970Z,79.10
2022-12-13T14:51:24.977Z,79.47
2022-12-13T14:53:41.863Z,79.55
2022-12-13T14:56:00.138Z,78.75
2022-12-13T14:58:17.106Z,79.41
2022-12-13T15:00:34.761Z,79.38
2022-12-13T15:02:51.854Z,79.13
2022-12-13T15:05:09.095Z,79.58
2022-12-13T15:07:26.149Z,79.78
2022-12-13T15:09:43.073Z,79.65
2022-12-13T15:12:15.249Z,79.31
2022-12-13T15:14:37.284Z,79.00
2022-12-13T15:16:54.256Z,78.77
2022-12-13T15:19:11.327Z,78.87
2022-12-13T15:21:28.674Z,78.70
2022-12-13T15:23:48.712Z,79.05
2022-12-13T15:26:06.536Z,79.32
2022-12-13T15:28:24.901Z,79.29
2022-12-13T15:30:42.499Z,80.38
2022-12-13T15:32:59.672Z,80.31
2022-12-13T15:35:16.871Z,80.12
2022-12-13T15:37:34.342Z,80.65
2022-12-13T15:39:51.756Z,80.68
2022-12-13T15:42:09.108Z,80.16
2022-12-13T15:44:26.408Z,80.28
2022-12-13T15:46:43.772Z,80.26
2022-12-13T15:49:01.140Z,80.68
2022-12-13T15:51:29.441Z,80.70
2022-12-13T15:53:47.699Z,80.69
2022-12-13T15:56:09.567Z,80.99
2022-12-13T15:58:26.878Z,81.14
2022-12-13T16:00:45.047Z,80.91
2022-12-13T16:03:08.544Z,81.23
2022-12-13T16:05:26.782Z,81.47
2022-12-13T16:07:43.874Z,81.22
2022-12-13T16:10:00.928Z,81.53
2022-12-13T16:12:18.890Z,81.17
2022-12-13T16:14:36.281Z,81.26
2022-12-13T16:16:53.327Z,81.73
2022-12-13T16:19:10.590Z,81.88
2022-12-13T16:21:27.629Z,81.61
2022-12-13T16:23:48.818Z,81.63
2022-12-13T16:26:09.134Z,82.22
2022-12-13T16:28:26.492Z,82.08
2022-12-13T16:30:43.877Z,81.80
2022-12-13T16:33:18.718Z,82.14
2022-12-13T16:35:37.833Z,81.84
2022-12-13T16:37:59.056Z,82.00
2022-12-13T16:40:16.718Z,82.17
2022-12-13T16:42:33.651Z,81.99
2022-12-13T16:44:50.800Z,81.79
2022-12-13T16:47:12.459Z,81.60
2022-12-13T16:49:35.906Z,81.66
2022-12-13T16:51:53.013Z,81.97
2022-12-13T16:54:09.990Z,81.78
2022-12-13T16:56:27.277Z,81.92
2022-12-13T16:58:49.604Z,81.39
2022-12-13T17:01:07.472Z,81.42
2022-12-13T17:03:24.842Z,81.19
2022-12-13T17:05:42.329Z,81.33
2022-12-13T17:07:59.295Z,81.49
2022-12-13T17:10:16.606Z,81.34
2022-12-13T17:12:33.877Z,81.76
2022-12-13T17:14:51.076Z,81.54
2022-12-13T17:17:12.991Z,81.67
2022-12-13T17:19:34.489Z,81.47
2022-12-13T17:21:51.558Z,81.45
2022-12-13T17:24:08.434Z,81.23
2022-12-13T17:26:25.380Z,81.52
2022-12-13T17:28:42.706Z,80.28
2022-12-13T17:30:59.987Z,80.80
2022-12-13T17:33:17.042Z,80.50
2022-12-13T17:35:33.950Z,81.14
2022-12-13T17:37:51.861Z,81.15
2022-12-13T17:40:08.877Z,81.44
2022-12-13T17:42:25.940Z,81.45
2022-12-13T17:44:42.961Z,81.45
2022-12-13T17:46:59.994Z,81.31
2022-12-13T17:49:18.329Z,81.34
2022-12-13T17:51:35.257Z,80.99
2022-12-13T17:53:52.203Z,81.18
2022-12-13T17:56:09.146Z,80.78
2022-12-13T17:58:26.556Z,80.65
2022-12-13T18:00:43.873Z,80.58
2022-12-13T18:03:00.804Z,80.57
2022-12-13T18:05:18.292Z,79.85
2022-12-13T18:07:36.302Z,80.42
2022-12-13T18:09:53.563Z,80.15
2022-12-13T18:12:10.473Z,80.54
2022-12-13T18:14:28.306Z,80.25
2022-12-13T18:16:45.349Z,80.38
2022-12-13T18:19:02.328Z,80.43
2022-12-13T18:21:19.366Z,80.84
2022-12-13T18:23:36.353Z,81.06
2022-12-13T18:25:54.389Z,80.95
2022-12-13T18:28:11.632Z,80.85
2022-12-13T18:30:29.920Z,81.02
2022-12-13T18:32:46.843Z,80.73
2022-12-13T18:35:03.742Z,81.29
2022-12-13T18:37:20.668Z,80.95
2022-12-13T18:39:37.652Z,81.23
2022-12-13T18:41:54.695Z,80.60
2022-12-13T18:44:11.676Z,80.95
2022-12-13T18:46:28.707Z,81.26
2022-12-13T18:48:45.707Z,80.63
2022-12-13T18:51:02.905Z,80.83
2022-12-13T18:53:19.908Z,80.33
2022-12-13T18:55:36.937Z,80.76
2022-12-13T18:57:54.142Z,80.41
2022-12-13T19:00:11.065Z,80.56
2022-12-13T19:02:34.060Z,81.15
2022-12-13T19:04:55.293Z,80.87
2022-12-13T19:07:12.979Z,81.21
2022-12-13T19:09:30.306Z,80.96
2022-12-13T19:11:48.168Z,81.04
2022-12-13T19:14:05.167Z,80.88
2022-12-13T19:16:22.265Z,80.58
2022-12-13T19:18:39.580Z,80.93
2022-12-13T19:20:56.564Z,80.68
2022-12-13T19:23:14.401Z,80.63
2022-12-13T19:25:31.399Z,80.70
2022-12-13T19:27:48.677Z,80.85
2022-12-13T19:30:05.735Z,81.37
2022-12-13T19:32:22.946Z,81.14
2022-12-13T19:34:40.251Z,81.25
2022-12-13T19:37:00.318Z,81.26
2022-12-13T19:39:21.616Z,80.92
2022-12-13T19:41:39.518Z,80.86
2022-12-13T19:43:56.430Z,80.87
2022-12-13T19:46:13.571Z,81.36
2022-12-13T19:48:31.225Z,81.12
2022-12-13T19:50:48.137Z,81.37
2022-12-13T19:53:06.474Z,81.55
2022-12-13T19:55:23.427Z,80.95
2022-12-13T19:57:40.348Z,81.50
2022-12-13T19:59:57.436Z,81.24
2022-12-13T20:02:14.756Z,81.42
2022-12-13T20:04:32.053Z,81.68
2022-12-13T20:06:49.129Z,81.38
2022-12-13T20:09:08.480Z,81.80
2022-12-13T20:11:25.514Z,81.22
2022-12-13T20:13:42.652Z,81.15
2022-12-13T20:15:59.620Z,81.66
2022-12-13T20:18:16.708Z,81.14
2022-12-13T20:21:02.429Z,81.28
2022-12-13T20:23:10.968Z,80.68
2022-12-13T20:25:28.251Z,80.77
2022-12-13T20:27:45.238Z,81.12
2022-12-13T20:30:03.494Z,80.90
2022-12-13T20:32:21.711Z,80.65
2022-12-13T20:34:38.946Z,80.99
2022-12-13T20:36:55.882Z,81.14
2022-12-13T20:39:13.759Z,80.25
2022-12-13T20:41:30.713Z,80.78
2022-12-13T20:43:48.309Z,80.77
2022-12-13T20:46:05.782Z,80.43
2022-12-13T20:48:22.722Z,80.56
2022-12-13T20:50:39.653Z,80.74
2022-12-13T20:52:56.576Z,80.06
2022-12-13T20:55:13.508Z,80.34
2022-12-13T20:57:30.541Z,80.26
2022-12-13T20:59:47.691Z,80.57
2022-12-13T21:02:04.832Z,80.09
2022-12-13T21:04:21.844Z,80.18
2022-12-13T21:06:38.833Z,80.52
2022-12-13T21:08:56.205Z,80.09
2022-12-13T21:11:14.372Z,79.92
2022-12-13T21:13:31.584Z,79.31
2022-12-13T21:15:48.830Z,79.53
2022-12-13T21:18:05.856Z,79.72
2022-12-13T21:20:22.910Z,79.88
2022-12-13T21:22:39.951Z,79.94
2022-12-13T21:24:57.251Z,79.87
2022-12-13T21:27:14.320Z,80.25
2022-12-13T21:29:31.290Z,79.77
2022-12-13T21:31:49.399Z,79.83
2022-12-13T21:34:07.478Z,79.85
2022-12-13T21:36:25.541Z,79.84
2022-12-13T21:38:42.560Z,79.26
2022-12-13T21:40:59.831Z,78.96
2022-12-13T21:43:16.855Z,78.77
2022-12-13T21:45:34.157Z,79.16
2022-12-13T21:47:51.196Z,78.97
2022-12-13T21:50:08.155Z,79.15
2022-12-13T21:52:25.069Z,79.39
2022-12-13T21:54:42.120Z,79.05
2022-12-13T21:56:59.094Z,79.34
2022-12-13T21:59:19.377Z,79.18
2022-12-13T22:01:36.372Z,78.88
2022-12-13T22:03:53.307Z,79.16
2022-12-13T22:06:10.555Z,79.43
2022-12-13T22:08:28.928Z,79.35
2022-12-13T22:10:46.469Z,79.77
2022-12-13T22:13:03.426Z,79.62
2022-12-13T22:15:20.394Z,79.49
2022-12-13T22:17:37.289Z,79.81
2022-12-13T22:19:54.372Z,79.67
2022-12-13T22:22:11.376Z,79.64
2022-12-13T22:24:28.386Z,79.22
2022-12-13T22:26:45.752Z,78.99
2022-12-13T22:29:02.777Z,78.92
2022-12-13T22:31:19.966Z,78.85
2022-12-13T22:33:36.973Z,78.82
2022-12-13T22:35:53.952Z,79.98
2022-12-13T22:38:10.892Z,79.26
2022-12-13T22:40:27.941Z,80.04
2022-12-13T22:42:48.434Z,79.28
2022-12-13T22:45:05.626Z,79.35
2022-12-13T22:47:24.001Z,78.72
2022-12-13T22:49:41.097Z,79.74
2022-12-13T22:51:58.033Z,79.58
2022-12-13T22:54:14.981Z,79.62
2022-12-13T22:56:32.306Z,79.13
2022-12-13T22:58:49.381Z,79.66
2022-12-13T23:01:06.842Z,79.14
2022-12-13T23:03:23.943Z,79.14
2022-12-13T23:05:40.937Z,79.34
2022-12-13T23:07:58.336Z,79.46
2022-12-13T23:10:15.634Z,79.58
2022-12-13T23:12:32.716Z,79.54
2022-12-13T23:14:51.233Z,79.63
2022-12-13T23:17:09.383Z,79.43
2022-12-13T23:19:49.940Z,79.98
2022-12-13T23:22:03.332Z,80.46
2022-12-13T23:24:21.467Z,79.74
2022-12-13T23:26:38.938Z,79.56
2022-12-13T23:28:56.440Z,79.23
2022-12-13T23:31:13.522Z,79.80
2022-12-13T23:33:30.622Z,79.96
2022-12-13T23:35:48.102Z,79.80
2022-12-13T23:38:05.166Z,79.83
2022-12-13T23:40:22.506Z,79.81
2022-12-13T23:42:39.512Z,79.76
2022-12-13T23:44:57.012Z,79.23
2022-12-13T23:47:14.136Z,79.34
2022-12-13T23:49:32.160Z,79.76
2022-12-13T23:51:49.162Z,79.29
2022-12-13T23:54:06.166Z,79.91
2022-12-13T23:56:23.159Z,79.72
2022-12-13T23:58:40.298Z,80.07
